Time;durP1;ratioP1;P1;durP2;ratioP2;P2;SDS_P1;SDS_P2;PMS_P1;PMS_P2;Temp;Humidity;BMP_temperature;BMP_pressure;BME280_temperature;BME280_humidity;BME280_pressure;Samples;Min_cycle;Max_cycle;Signal;HPM_P1;HPM_P2
2022/11/30 07:03:05;;;;;;;;;0.00;0.00;;;;;;;;5048422;28;30873;-96
2022/11/30 07:05:38;;;;;;;;;0.00;0.00;;;;;;;;5030038;28;31277;-96
2022/11/30 07:10:42;;;;;;;;;0.00;0.00;;;;;;;;5937646;22;31788;-95
2022/11/30 07:13:11;;;;;;;;;0.00;0.00;;;;;;;;5088427;28;28722;-96
2022/11/30 07:15:37;;;;;;;;;0.00;0.00;;;;;;;;5081445;28;29441;-96
2022/11/30 07:18:02;;;;;;;;;0.00;0.00;;;;;;;;5083977;28;29889;-96
2022/11/30 07:20:27;;;;;;;;;0.00;0.00;;;;;;;;5085622;28;28466;-96
2022/11/30 07:28:13;;;;;;;;;0.00;0.00;;;;;;;;5803731;22;28830;-90
2022/11/30 07:30:38;;;;;;;;;0.00;0.00;;;;;;;;5094320;28;28532;-92
2022/11/30 07:33:03;;;;;;;;;0.00;0.00;;;;;;;;5091957;28;28457;-92
2022/11/30 07:35:28;;;;;;;;;0.00;0.00;;;;;;;;5092376;28;28390;-90
2022/11/30 07:37:53;;;;;;;;;0.00;0.00;;;;;;;;5089965;28;29787;-89
2022/11/30 07:40:18;;;;;;;;;0.00;0.00;;;;;;;;5099478;27;29650;-93
2022/11/30 07:42:44;;;;;;;;;0.00;0.00;;;;;;;;5094131;27;28543;-89
2022/11/30 07:45:09;;;;;;;;;0.00;0.00;;;;;;;;5112015;27;28457;-92
2022/11/30 07:47:35;;;;;;;;;0.00;0.00;;;;;;;;5093603;27;30533;-89
2022/11/30 07:50:00;;;;;;;;;0.00;0.00;;;;;;;;5109263;27;38614;-91
2022/11/30 07:52:25;;;;;;;;;0.00;0.00;;;;;;;;5104526;27;43496;-89
2022/11/30 07:54:50;;;;;;;;;0.00;0.00;;;;;;;;5095115;27;31206;-90
2022/11/30 07:57:15;;;;;;;;;0.00;0.00;;;;;;;;5110271;27;34819;-89
2022/11/30 07:59:41;;;;;;;;;0.00;0.00;;;;;;;;5108163;27;39425;-91
2022/11/30 08:02:06;;;;;;;;;0.00;0.00;;;;;;;;5100540;27;33646;-90
2022/11/30 08:04:31;;;;;;;;;0.00;0.00;;;;;;;;5106262;27;43539;-90
2022/11/30 08:06:56;;;;;;;;;0.00;0.00;;;;;;;;5110143;27;38428;-89
2022/11/30 08:09:21;;;;;;;;;0.00;0.00;;;;;;;;5127941;27;41700;-93
2022/11/30 08:11:47;;;;;;;;;3.00;3.00;;;;;;;;5116424;27;33862;-89
2022/11/30 08:14:12;;;;;;;;;0.00;0.00;;;;;;;;5097965;27;37244;-91
2022/11/30 08:16:38;;;;;;;;;0.00;0.00;;;;;;;;5099946;27;39890;-91
2022/11/30 08:19:03;;;;;;;;;0.00;0.00;;;;;;;;5101831;27;38930;-85
2022/11/30 08:21:30;;;;;;;;;0.00;0.00;;;;;;;;5118401;27;29120;-85
2022/11/30 08:23:55;;;;;;;;;0.00;0.00;;;;;;;;5089837;27;32597;-85
2022/11/30 08:26:22;;;;;;;;;0.00;0.00;;;;;;;;5089907;27;31414;-86
2022/11/30 08:28:48;;;;;;;;;0.00;0.00;;;;;;;;5090216;27;29587;-87
2022/11/30 08:31:15;;;;;;;;;0.00;0.00;;;;;;;;5086245;27;29412;-86
2022/11/30 08:33:41;;;;;;;;;0.00;0.00;;;;;;;;5087264;27;28641;-86
2022/11/30 08:36:09;;;;;;;;;0.00;0.00;;;;;;;;5109539;27;29418;-85
2022/11/30 08:38:34;;;;;;;;;0.00;0.00;;;;;;;;5105774;27;29435;-88
2022/11/30 08:40:59;;;;;;;;;0.00;0.00;;;;;;;;5088928;27;36167;-89
2022/11/30 08:43:25;;;;;;;;;0.00;0.00;;;;;;;;5089439;27;28659;-87
2022/11/30 08:45:50;;;;;;;;;0.33;0.33;;;;;;;;5092311;27;30098;-87
2022/11/30 08:48:15;;;;;;;;;0.00;0.00;;;;;;;;5094322;27;31300;-88
2022/11/30 08:50:40;;;;;;;;;0.00;0.00;;;;;;;;5092481;27;28767;-86
2022/11/30 08:53:05;;;;;;;;;0.00;0.00;;;;;;;;5112548;27;28814;-86
2022/11/30 08:55:31;;;;;;;;;35.00;35.00;;;;;;;;5111520;27;29424;-86
2022/11/30 08:57:56;;;;;;;;;0.00;0.00;;;;;;;;5110960;27;28631;-86
2022/11/30 09:00:21;;;;;;;;;0.00;0.00;;;;;;;;5093540;27;28548;-83
2022/11/30 09:02:46;;;;;;;;;0.00;0.00;;;;;;;;5111964;27;28574;-84
2022/11/30 09:05:12;;;;;;;;;0.00;0.00;;;;;;;;5093576;27;30322;-84
2022/11/30 09:07:37;;;;;;;;;0.00;0.00;;;;;;;;5092659;27;29390;-84
2022/11/30 09:10:02;;;;;;;;;0.00;0.00;;;;;;;;5105058;27;28573;-84
2022/11/30 09:12:27;;;;;;;;;0.00;0.00;;;;;;;;5111019;27;28520;-85
2022/11/30 09:14:53;;;;;;;;;0.00;0.00;;;;;;;;5093963;27;30012;-83
2022/11/30 09:17:18;;;;;;;;;3.67;3.67;;;;;;;;5083544;27;28573;-84
2022/11/30 09:19:43;;;;;;;;;0.00;0.00;;;;;;;;5111239;27;28765;-84
2022/11/30 09:22:08;;;;;;;;;0.00;0.00;;;;;;;;5093862;27;28437;-85
2022/11/30 09:24:34;;;;;;;;;1.00;1.00;;;;;;;;5111835;27;28422;-86
2022/11/30 09:26:59;;;;;;;;;0.00;0.00;;;;;;;;5092557;27;28977;-85
2022/11/30 09:29:24;;;;;;;;;0.00;0.00;;;;;;;;5087613;28;28721;-85
2022/11/30 09:31:49;;;;;;;;;0.00;0.00;;;;;;;;5088160;28;28410;-86
2022/11/30 09:34:15;;;;;;;;;0.00;0.00;;;;;;;;5090229;27;28706;-88
2022/11/30 09:36:40;;;;;;;;;0.00;0.00;;;;;;;;5088497;28;28745;-85
2022/11/30 09:39:05;;;;;;;;;0.00;0.00;;;;;;;;5086966;28;28460;-85
2022/11/30 09:41:49;;;;;;;;;0.00;0.00;;;;;;;;5088632;28;28568;-86
2022/11/30 09:44:20;;;;;;;;;0.00;0.00;;;;;;;;5089313;28;30591;-85
2022/11/30 09:46:48;;;;;;;;;0.00;0.00;;;;;;;;5088994;27;28674;-85
2022/11/30 09:49:28;;;;;;;;;0.00;0.00;;;;;;;;5083867;27;28558;-85
2022/11/30 09:51:55;;;;;;;;;0.00;0.00;;;;;;;;5087725;27;28782;-85
2022/11/30 09:54:34;;;;;;;;;0.00;0.00;;;;;;;;5090297;27;28676;-86
2022/11/30 09:56:59;;;;;;;;;0.00;0.00;;;;;;;;5085407;27;28458;-85
2022/11/30 09:59:28;;;;;;;;;0.00;0.00;;;;;;;;5087240;27;28620;-85
2022/11/30 10:01:54;;;;;;;;;0.00;0.00;;;;;;;;5087214;27;28590;-85
2022/11/30 10:04:24;;;;;;;;;0.00;0.00;;;;;;;;5085541;27;28763;-85
2022/11/30 10:06:54;;;;;;;;;0.00;0.00;;;;;;;;5093421;27;28453;-85
2022/11/30 10:09:27;;;;;;;;;0.00;0.00;;;;;;;;5087543;27;28383;-85
2022/11/30 10:12:01;;;;;;;;;0.00;0.00;;;;;;;;5087354;27;28627;-85
2022/11/30 10:14:29;;;;;;;;;0.00;0.00;;;;;;;;5094172;27;31469;-85
2022/11/30 10:17:03;;;;;;;;;0.00;0.00;;;;;;;;5091932;27;28638;-85
2022/11/30 10:19:44;;;;;;;;;0.00;0.00;;;;;;;;5091448;27;28470;-85
2022/11/30 10:22:17;;;;;;;;;0.00;0.00;;;;;;;;5089295;27;28547;-85
2022/11/30 10:25:15;;;;;;;;;0.00;0.00;;;;;;;;5088744;27;30610;-84
2022/11/30 10:27:40;;;;;;;;;0.00;0.00;;;;;;;;5084579;27;28029;-84
2022/11/30 10:30:12;;;;;;;;;0.00;0.00;;;;;;;;5089256;27;28709;-87
2022/11/30 10:32:39;;;;;;;;;0.00;0.00;;;;;;;;5085671;27;28556;-84
2022/11/30 10:35:28;;;;;;;;;0.00;0.00;;;;;;;;5088618;27;30125;-84
2022/11/30 10:37:55;;;;;;;;;0.00;0.00;;;;;;;;5086178;27;28486;-84
2022/11/30 10:40:36;;;;;;;;;0.00;0.00;;;;;;;;5090609;27;28691;-89
2022/11/30 10:43:24;;;;;;;;;0.00;0.00;;;;;;;;5086906;27;28600;-84
2022/11/30 10:45:50;;;;;;;;;0.00;0.00;;;;;;;;5067480;28;31321;-84
2022/11/30 10:48:18;;;;;;;;;0.00;0.00;;;;;;;;5085959;27;28845;-84
2022/11/30 10:50:43;;;;;;;;;0.00;0.00;;;;;;;;5072560;27;28540;-84
2022/11/30 10:53:10;;;;;;;;;0.00;0.00;;;;;;;;5086882;27;28417;-83
2022/11/30 10:55:39;;;;;;;;;0.00;0.00;;;;;;;;5069882;28;30386;-88
2022/11/30 10:58:24;;;;;;;;;0.00;0.00;;;;;;;;5084255;27;28624;-85
2022/11/30 11:00:59;;;;;;;;;0.00;0.00;;;;;;;;5058990;27;28543;-84
2022/11/30 11:03:25;;;;;;;;;0.00;0.00;;;;;;;;5072766;27;27923;-83
2022/11/30 11:06:01;;;;;;;;;0.00;0.00;;;;;;;;5086024;27;29188;-87
2022/11/30 11:08:27;;;;;;;;;0.00;0.00;;;;;;;;5082463;27;29862;-87
2022/11/30 11:10:52;;;;;;;;;1.00;1.00;;;;;;;;5086773;27;28669;-86
2022/11/30 11:13:19;;;;;;;;;0.00;0.00;;;;;;;;5089161;27;28493;-86
2022/11/30 11:15:57;;;;;;;;;0.00;0.00;;;;;;;;5096966;27;29591;-87
2022/11/30 11:18:24;;;;;;;;;0.00;0.00;;;;;;;;5089191;27;28406;-83
2022/11/30 11:21:02;;;;;;;;;0.00;0.00;;;;;;;;5088139;27;28972;-86
2022/11/30 11:23:30;;;;;;;;;0.00;0.00;;;;;;;;5091323;27;28516;-83
2022/11/30 11:25:56;;;;;;;;;0.00;0.00;;;;;;;;5094597;27;30200;-86
2022/11/30 11:28:23;;;;;;;;;0.00;0.00;;;;;;;;5090532;27;28515;-87
2022/11/30 11:30:50;;;;;;;;;0.00;0.00;;;;;;;;5093765;27;27808;-87
2022/11/30 11:33:23;;;;;;;;;0.00;0.00;;;;;;;;5091828;27;28797;-86
2022/11/30 11:35:51;;;;;;;;;0.00;0.00;;;;;;;;5090801;27;30129;-90
2022/11/30 11:38:35;;;;;;;;;0.00;0.00;;;;;;;;5085363;28;28438;-86
2022/11/30 11:41:01;;;;;;;;;0.00;0.00;;;;;;;;5087103;28;28544;-87
2022/11/30 11:43:33;;;;;;;;;0.00;0.00;;;;;;;;5088909;27;28778;-87
2022/11/30 11:46:16;;;;;;;;;0.00;0.00;;;;;;;;5085641;28;29484;-87
2022/11/30 11:48:56;;;;;;;;;0.00;0.00;;;;;;;;5089068;27;28578;-85
2022/11/30 11:51:28;;;;;;;;;0.00;0.00;;;;;;;;5090150;27;28493;-86
2022/11/30 11:53:55;;;;;;;;;0.00;0.00;;;;;;;;5088811;28;28387;-85
2022/11/30 11:56:24;;;;;;;;;0.00;0.00;;;;;;;;5091524;28;28518;-88
2022/11/30 11:58:52;;;;;;;;;0.00;0.00;;;;;;;;5087626;28;29702;-84
2022/11/30 12:01:34;;;;;;;;;0.00;0.00;;;;;;;;5090300;27;28480;-85
2022/11/30 12:04:09;;;;;;;;;0.00;0.00;;;;;;;;5086602;28;29753;-87
2022/11/30 12:06:35;;;;;;;;;0.00;0.00;;;;;;;;5087699;28;29953;-85
2022/11/30 12:09:20;;;;;;;;;0.00;0.00;;;;;;;;5087379;27;28627;-84
2022/11/30 12:11:47;;;;;;;;;0.00;0.00;;;;;;;;5088762;28;28476;-84
2022/11/30 12:14:16;;;;;;;;;0.00;0.00;;;;;;;;5087060;27;28499;-85
2022/11/30 12:17:00;;;;;;;;;0.00;0.00;;;;;;;;5087544;28;30162;-85
2022/11/30 12:19:52;;;;;;;;;0.00;0.00;;;;;;;;5086028;28;28703;-85
2022/11/30 12:22:17;;;;;;;;;0.00;0.00;;;;;;;;5086552;28;28409;-85
2022/11/30 12:24:48;;;;;;;;;0.00;0.00;;;;;;;;5089014;27;28916;-85
2022/11/30 12:27:13;;;;;;;;;0.00;0.00;;;;;;;;5087400;27;28462;-85
2022/11/30 12:29:57;;;;;;;;;0.00;0.00;;;;;;;;5080889;27;28579;-86
2022/11/30 12:32:25;;;;;;;;;0.00;0.00;;;;;;;;5087060;28;28552;-85
2022/11/30 12:35:06;;;;;;;;;0.00;0.00;;;;;;;;5087942;28;28621;-86
2022/11/30 12:37:42;;;;;;;;;0.00;0.00;;;;;;;;5081356;27;28655;-84
2022/11/30 12:40:28;;;;;;;;;0.00;0.00;;;;;;;;5085673;27;28621;-85
2022/11/30 12:42:55;;;;;;;;;0.00;0.00;;;;;;;;5085043;27;28596;-85
2022/11/30 12:45:32;;;;;;;;;0.00;0.00;;;;;;;;5093810;27;28467;-84
2022/11/30 12:48:12;;;;;;;;;0.00;0.00;;;;;;;;5090653;27;29344;-84
2022/11/30 12:50:37;;;;;;;;;0.00;0.00;;;;;;;;5088840;27;28771;-84
2022/11/30 12:53:05;;;;;;;;;0.00;0.00;;;;;;;;5087344;27;28969;-84
2022/11/30 12:55:53;;;;;;;;;0.00;0.00;;;;;;;;5084725;27;28771;-85
2022/11/30 12:58:18;;;;;;;;;0.00;0.00;;;;;;;;5085599;27;28427;-86
2022/11/30 13:00:43;;;;;;;;;0.00;0.00;;;;;;;;5087247;27;28449;-86
2022/11/30 13:03:25;;;;;;;;;0.00;0.00;;;;;;;;5086759;27;28770;-85
2022/11/30 13:05:56;;;;;;;;;0.00;0.00;;;;;;;;5084754;27;28543;-85
2022/11/30 13:08:24;;;;;;;;;0.00;0.00;;;;;;;;5086581;27;29457;-85
2022/11/30 13:10:59;;;;;;;;;0.00;0.00;;;;;;;;5086107;27;28563;-84
2022/11/30 13:13:27;;;;;;;;;0.00;0.00;;;;;;;;5088417;27;28600;-85
2022/11/30 13:15:54;;;;;;;;;0.00;0.00;;;;;;;;5088620;27;28455;-84
2022/11/30 13:18:20;;;;;;;;;0.00;0.00;;;;;;;;5086656;27;28575;-87
2022/11/30 13:20:55;;;;;;;;;12.00;12.00;;;;;;;;5081209;27;28705;-85
2022/11/30 13:23:23;;;;;;;;;0.00;0.00;;;;;;;;5086481;27;28488;-86
2022/11/30 13:26:17;;;;;;;;;0.00;0.00;;;;;;;;5087181;28;28417;-85
2022/11/30 13:29:01;;;;;;;;;0.00;0.00;;;;;;;;5072076;27;29337;-89
2022/11/30 13:31:32;;;;;;;;;0.00;0.00;;;;;;;;5078764;27;28598;-87
2022/11/30 13:33:58;;;;;;;;;0.00;0.00;;;;;;;;5089399;27;28404;-87
2022/11/30 13:36:37;;;;;;;;;0.00;0.00;;;;;;;;5089781;27;28860;-86
2022/11/30 13:39:26;;;;;;;;;0.00;0.00;;;;;;;;5088262;27;29170;-85
2022/11/30 13:42:00;;;;;;;;;0.00;0.00;;;;;;;;5082884;27;29547;-86
2022/11/30 13:44:33;;;;;;;;;0.00;0.00;;;;;;;;5089434;27;28468;-85
2022/11/30 13:47:00;;;;;;;;;0.00;0.00;;;;;;;;5088685;27;28515;-85
2022/11/30 13:49:30;;;;;;;;;0.00;0.00;;;;;;;;5088513;27;30240;-86
2022/11/30 13:51:55;;;;;;;;;0.00;0.00;;;;;;;;5087807;27;28547;-85
2022/11/30 13:54:35;;;;;;;;;0.00;0.00;;;;;;;;5090781;27;28473;-86
2022/11/30 13:57:01;;;;;;;;;0.00;0.00;;;;;;;;5088543;27;28549;-87
2022/11/30 13:59:26;;;;;;;;;0.00;0.00;;;;;;;;5091674;27;30144;-87
2022/11/30 14:01:52;;;;;;;;;0.00;0.00;;;;;;;;5089797;27;28579;-86
2022/11/30 14:04:17;;;;;;;;;0.00;0.00;;;;;;;;5087737;27;28613;-85
2022/11/30 14:06:43;;;;;;;;;0.00;0.00;;;;;;;;5088875;27;29008;-85
2022/11/30 14:09:15;;;;;;;;;0.00;0.00;;;;;;;;5089599;27;29528;-87
2022/11/30 14:11:44;;;;;;;;;0.00;0.00;;;;;;;;5091932;27;29001;-87
2022/11/30 14:14:28;;;;;;;;;0.00;0.00;;;;;;;;5087333;27;28609;-87
2022/11/30 14:16:53;;;;;;;;;0.00;0.00;;;;;;;;5087626;27;28475;-86
2022/11/30 14:19:19;;;;;;;;;0.00;0.00;;;;;;;;5089673;27;28485;-87
2022/11/30 14:21:44;;;;;;;;;0.00;0.00;;;;;;;;5090907;27;28532;-87
2022/11/30 14:24:18;;;;;;;;;0.00;0.00;;;;;;;;5087494;27;28512;-87
2022/11/30 14:26:45;;;;;;;;;0.00;0.00;;;;;;;;5093589;27;28489;-86
2022/11/30 14:29:16;;;;;;;;;0.00;0.00;;;;;;;;5088391;27;30435;-87
2022/11/30 14:31:55;;;;;;;;;0.00;0.00;;;;;;;;5096571;27;29944;-87
2022/11/30 14:34:23;;;;;;;;;0.00;0.00;;;;;;;;5089546;27;28571;-87
2022/11/30 14:36:54;;;;;;;;;0.00;0.00;;;;;;;;5089352;27;28496;-87
2022/11/30 14:39:22;;;;;;;;;0.00;0.00;;;;;;;;5088461;27;29543;-87
2022/11/30 14:41:48;;;;;;;;;0.00;0.00;;;;;;;;5088058;27;28648;-87
2022/11/30 14:44:13;;;;;;;;;0.00;0.00;;;;;;;;5087285;27;28631;-87
2022/11/30 14:46:39;;;;;;;;;0.00;0.00;;;;;;;;5086501;27;28512;-87
2022/11/30 14:49:13;;;;;;;;;0.00;0.00;;;;;;;;5086656;27;29701;-87
2022/11/30 14:51:40;;;;;;;;;0.00;0.00;;;;;;;;5088675;27;29343;-87
2022/11/30 14:54:12;;;;;;;;;0.00;0.00;;;;;;;;5083849;28;28618;-87
2022/11/30 14:56:47;;;;;;;;;0.00;0.00;;;;;;;;5086743;27;28552;-87
2022/11/30 14:59:25;;;;;;;;;0.00;0.00;;;;;;;;5088841;27;28621;-87
2022/11/30 15:01:54;;;;;;;;;0.00;0.00;;;;;;;;5093876;27;29764;-86
2022/11/30 15:04:19;;;;;;;;;0.00;0.00;;;;;;;;5088663;27;28839;-87
2022/11/30 15:06:45;;;;;;;;;0.00;0.00;;;;;;;;5086964;27;28631;-87
2022/11/30 15:09:18;;;;;;;;;0.00;0.00;;;;;;;;5090384;27;28879;-87
2022/11/30 15:11:45;;;;;;;;;0.00;0.00;;;;;;;;5088830;27;28573;-87
2022/11/30 15:14:10;;;;;;;;;0.00;0.00;;;;;;;;5073198;27;28548;-87
2022/11/30 15:16:36;;;;;;;;;0.00;0.00;;;;;;;;5089180;27;28440;-87
2022/11/30 15:19:17;;;;;;;;;0.00;0.00;;;;;;;;5089683;27;28560;-87
2022/11/30 15:21:44;;;;;;;;;0.00;0.00;;;;;;;;5085426;27;28780;-88
2022/11/30 15:24:10;;;;;;;;;0.00;0.00;;;;;;;;5086377;27;28655;-86
2022/11/30 15:26:51;;;;;;;;;0.00;0.00;;;;;;;;5088501;27;28405;-86
2022/11/30 15:29:19;;;;;;;;;0.00;0.00;;;;;;;;5100901;27;31318;-87
2022/11/30 15:31:47;;;;;;;;;0.00;0.00;;;;;;;;5108811;27;28863;-86
2022/11/30 15:34:25;;;;;;;;;0.00;0.00;;;;;;;;5091028;27;28600;-86
2022/11/30 15:36:54;;;;;;;;;0.00;0.00;;;;;;;;5107808;27;28543;-86
2022/11/30 15:39:21;;;;;;;;;4.00;4.00;;;;;;;;5110729;27;29186;-88
2022/11/30 15:41:51;;;;;;;;;0.00;0.00;;;;;;;;5101271;27;29025;-85
2022/11/30 15:44:21;;;;;;;;;0.00;0.00;;;;;;;;5092194;27;28533;-86
2022/11/30 15:47:01;;;;;;;;;0.00;0.00;;;;;;;;5090352;27;28626;-86
2022/11/30 15:49:27;;;;;;;;;0.00;0.00;;;;;;;;5091417;27;30781;-86
2022/11/30 15:52:15;;;;;;;;;16.00;16.00;;;;;;;;5098103;27;29436;-85
2022/11/30 15:54:45;;;;;;;;;0.00;0.00;;;;;;;;5094267;27;29726;-86
2022/11/30 15:57:10;;;;;;;;;0.00;0.00;;;;;;;;5089416;27;28538;-85
2022/11/30 15:59:36;;;;;;;;;0.00;0.00;;;;;;;;5090999;27;30238;-86
2022/11/30 16:02:06;;;;;;;;;0.00;0.00;;;;;;;;5087650;27;28855;-86
2022/11/30 16:04:50;;;;;;;;;0.00;0.00;;;;;;;;5086407;27;28768;-86
2022/11/30 16:07:16;;;;;;;;;0.00;0.00;;;;;;;;5088620;27;28567;-86
2022/11/30 16:09:42;;;;;;;;;0.00;0.00;;;;;;;;5100335;27;29913;-85
2022/11/30 16:12:15;;;;;;;;;0.00;0.00;;;;;;;;5106679;27;28946;-86
2022/11/30 16:14:40;;;;;;;;;0.00;0.00;;;;;;;;5100714;27;28601;-85
2022/11/30 16:17:05;;;;;;;;;0.00;0.00;;;;;;;;5093224;27;28425;-85
2022/11/30 16:19:30;;;;;;;;;0.00;0.00;;;;;;;;5111401;27;30019;-87
2022/11/30 16:21:55;;;;;;;;;0.00;0.00;;;;;;;;5111224;27;28675;-86
2022/11/30 16:24:21;;;;;;;;;0.00;0.00;;;;;;;;5113738;27;28538;-84
2022/11/30 16:26:46;;;;;;;;;0.00;0.00;;;;;;;;5109135;27;28786;-84
2022/11/30 16:29:11;;;;;;;;;0.00;0.00;;;;;;;;5106001;27;29413;-85
2022/11/30 16:31:37;;;;;;;;;0.00;0.00;;;;;;;;5103624;27;28347;-85
2022/11/30 16:34:03;;;;;;;;;0.00;0.00;;;;;;;;5090359;27;28533;-85
2022/11/30 16:36:29;;;;;;;;;0.00;0.00;;;;;;;;5114634;27;28563;-85
2022/11/30 16:38:54;;;;;;;;;0.00;0.00;;;;;;;;5114364;27;29200;-85
2022/11/30 16:41:20;;;;;;;;;0.00;0.00;;;;;;;;5099606;27;29381;-85
2022/11/30 16:43:46;;;;;;;;;0.00;0.00;;;;;;;;5115923;27;28584;-85
2022/11/30 16:46:12;;;;;;;;;0.00;0.00;;;;;;;;5094306;27;29518;-85
2022/11/30 16:48:37;;;;;;;;;0.00;0.00;;;;;;;;5107061;27;28533;-85
2022/11/30 16:51:03;;;;;;;;;0.00;0.00;;;;;;;;5114875;27;28680;-85
2022/11/30 16:53:28;;;;;;;;;0.00;0.00;;;;;;;;5096920;27;28608;-85
2022/11/30 16:55:53;;;;;;;;;0.00;0.00;;;;;;;;5116831;27;28428;-85
2022/11/30 16:58:18;;;;;;;;;0.00;0.00;;;;;;;;5093024;27;30318;-84
2022/11/30 17:00:43;;;;;;;;;0.00;0.00;;;;;;;;5106266;27;28377;-85
2022/11/30 17:03:24;;;;;;;;;0.00;0.00;;;;;;;;5088182;27;28342;-85
2022/11/30 17:05:49;;;;;;;;;0.00;0.00;;;;;;;;5092204;27;28840;-85
2022/11/30 17:08:15;;;;;;;;;0.00;0.00;;;;;;;;5112443;27;29324;-85
2022/11/30 17:10:41;;;;;;;;;0.00;0.00;;;;;;;;5120025;27;28776;-84
2022/11/30 17:13:09;;;;;;;;;0.00;0.00;;;;;;;;5114639;27;28539;-85
2022/11/30 17:15:34;;;;;;;;;0.00;0.00;;;;;;;;5110590;27;28538;-85
2022/11/30 17:17:59;;;;;;;;;0.00;0.00;;;;;;;;5092371;27;30898;-85
2022/11/30 17:20:26;;;;;;;;;0.00;0.00;;;;;;;;5111530;27;28666;-85
2022/11/30 17:22:51;;;;;;;;;0.00;0.00;;;;;;;;5093794;27;28591;-85
2022/11/30 17:25:18;;;;;;;;;0.00;0.00;;;;;;;;5092616;27;28642;-85
2022/11/30 17:27:43;;;;;;;;;0.00;0.00;;;;;;;;5100174;27;29780;-84
2022/11/30 17:30:10;;;;;;;;;0.00;0.00;;;;;;;;5112257;27;28786;-85
2022/11/30 17:32:35;;;;;;;;;0.00;0.00;;;;;;;;5099996;27;28607;-85
2022/11/30 17:35:00;;;;;;;;;0.00;0.00;;;;;;;;5097474;27;32780;-86
2022/11/30 17:37:25;;;;;;;;;0.00;0.00;;;;;;;;5115687;27;35547;-85
2022/11/30 17:39:50;;;;;;;;;0.00;0.00;;;;;;;;5123346;27;28500;-86
2022/11/30 17:42:16;;;;;;;;;0.00;0.00;;;;;;;;5114122;27;28647;-85
2022/11/30 17:44:41;;;;;;;;;0.00;0.00;;;;;;;;5110960;27;28604;-86
2022/11/30 17:47:06;;;;;;;;;0.00;0.00;;;;;;;;5096571;27;30383;-86
2022/11/30 17:49:32;;;;;;;;;0.00;0.00;;;;;;;;5097231;27;28926;-85
2022/11/30 17:51:57;;;;;;;;;0.00;0.00;;;;;;;;5113302;27;28617;-86
2022/11/30 17:54:22;;;;;;;;;0.00;0.00;;;;;;;;5096385;27;28921;-84
2022/11/30 17:56:47;;;;;;;;;0.00;0.00;;;;;;;;5095713;27;29684;-86
2022/11/30 17:59:12;;;;;;;;;0.00;0.00;;;;;;;;5095906;27;28566;-85
2022/11/30 18:01:39;;;;;;;;;0.00;0.00;;;;;;;;5114569;27;28693;-87
2022/11/30 18:04:04;;;;;;;;;0.00;0.00;;;;;;;;5091712;27;28359;-86
2022/11/30 18:06:29;;;;;;;;;0.00;0.00;;;;;;;;5097309;27;30159;-86
2022/11/30 18:08:55;;;;;;;;;0.00;0.00;;;;;;;;5100039;27;28602;-86
2022/11/30 18:11:22;;;;;;;;;0.00;0.00;;;;;;;;5120345;27;28559;-88
2022/11/30 18:13:50;;;;;;;;;0.00;0.00;;;;;;;;5101379;27;28972;-85
2022/11/30 18:16:16;;;;;;;;;0.00;0.00;;;;;;;;5104224;27;28566;-85
2022/11/30 18:18:42;;;;;;;;;0.00;0.00;;;;;;;;5111202;27;28851;-85
2022/11/30 18:21:08;;;;;;;;;4.00;4.00;;;;;;;;5108923;27;27846;-86
2022/11/30 18:23:34;;;;;;;;;0.00;0.00;;;;;;;;5093379;27;28492;-86
2022/11/30 18:26:00;;;;;;;;;0.00;0.00;;;;;;;;5093793;27;29947;-85
2022/11/30 18:28:25;;;;;;;;;0.00;0.00;;;;;;;;5095961;27;29990;-83
2022/11/30 18:30:51;;;;;;;;;0.00;0.00;;;;;;;;5114005;27;28450;-85
2022/11/30 18:33:16;;;;;;;;;0.00;0.00;;;;;;;;5099025;27;28666;-85
2022/11/30 18:35:41;;;;;;;;;0.00;0.00;;;;;;;;5090293;27;31344;-86
2022/11/30 18:38:06;;;;;;;;;0.00;0.00;;;;;;;;5113000;27;28634;-81
2022/11/30 18:40:31;;;;;;;;;0.00;0.00;;;;;;;;5109448;27;28480;-82
2022/11/30 18:42:57;;;;;;;;;0.00;0.00;;;;;;;;5112429;27;28562;-85
2022/11/30 18:45:22;;;;;;;;;0.00;0.00;;;;;;;;5107978;27;29314;-83
2022/11/30 18:47:47;;;;;;;;;0.00;0.00;;;;;;;;5092428;27;28730;-83
2022/11/30 18:50:12;;;;;;;;;0.00;0.00;;;;;;;;5110730;27;28754;-83
2022/11/30 18:52:37;;;;;;;;;0.00;0.00;;;;;;;;5110294;27;28464;-84
2022/11/30 18:55:03;;;;;;;;;0.00;0.00;;;;;;;;5094734;27;28786;-84
2022/11/30 18:57:28;;;;;;;;;0.00;0.00;;;;;;;;5110922;27;28855;-85
2022/11/30 18:59:53;;;;;;;;;6.33;4.33;;;;;;;;5092091;27;28417;-84
2022/11/30 19:02:19;;;;;;;;;0.00;0.00;;;;;;;;5110494;27;28643;-86
2022/11/30 19:04:44;;;;;;;;;0.00;0.00;;;;;;;;5109316;27;28826;-83
2022/11/30 19:07:09;;;;;;;;;0.00;0.00;;;;;;;;5091192;27;28895;-85
2022/11/30 19:09:35;;;;;;;;;0.67;0.67;;;;;;;;5112719;27;28562;-85
2022/11/30 19:12:00;;;;;;;;;0.00;0.00;;;;;;;;5092293;27;28531;-87
2022/11/30 19:14:25;;;;;;;;;3.00;3.00;;;;;;;;5110375;27;28452;-85
2022/11/30 19:16:50;;;;;;;;;0.00;0.00;;;;;;;;5090303;27;28992;-87
2022/11/30 19:19:15;;;;;;;;;0.00;0.00;;;;;;;;5091587;27;28572;-86
2022/11/30 19:21:42;;;;;;;;;0.00;0.00;;;;;;;;5092694;27;28680;-84
2022/11/30 19:24:07;;;;;;;;;0.00;0.00;;;;;;;;5109683;27;29460;-84
2022/11/30 19:26:33;;;;;;;;;2.67;2.67;;;;;;;;5110666;27;28580;-84
2022/11/30 19:28:58;;;;;;;;;0.00;0.00;;;;;;;;5090495;27;28525;-84
2022/11/30 19:31:24;;;;;;;;;0.00;0.00;;;;;;;;5109652;27;28457;-84
2022/11/30 19:33:50;;;;;;;;;0.00;0.00;;;;;;;;5110174;27;31501;-84
2022/11/30 19:36:17;;;;;;;;;0.00;0.00;;;;;;;;5109853;27;28464;-85
2022/11/30 19:38:43;;;;;;;;;0.00;0.00;;;;;;;;5091743;27;28441;-84
2022/11/30 19:41:09;;;;;;;;;0.00;0.00;;;;;;;;5092077;27;28662;-84
2022/11/30 19:43:34;;;;;;;;;0.00;0.00;;;;;;;;5109712;27;29404;-83
2022/11/30 19:46:03;;;;;;;;;0.00;0.00;;;;;;;;5095818;27;28677;-83
2022/11/30 19:48:28;;;;;;;;;0.00;0.00;;;;;;;;5114216;27;28655;-82
2022/11/30 19:50:54;;;;;;;;;0.00;0.00;;;;;;;;5096453;27;28662;-83
2022/11/30 19:53:19;;;;;;;;;0.00;0.00;;;;;;;;5091497;27;30032;-83
2022/11/30 19:55:44;;;;;;;;;0.00;0.00;;;;;;;;5109564;27;28508;-83
2022/11/30 19:58:09;;;;;;;;;0.00;0.00;;;;;;;;5110104;27;28434;-84
2022/11/30 20:00:34;;;;;;;;;0.00;0.00;;;;;;;;5109818;27;28960;-84
2022/11/30 20:03:08;;;;;;;;;0.00;0.00;;;;;;;;5107091;27;28532;-84
2022/11/30 20:05:33;;;;;;;;;0.00;0.00;;;;;;;;5107109;27;28244;-84
2022/11/30 20:07:58;;;;;;;;;0.00;0.00;;;;;;;;5109128;27;28397;-84
2022/11/30 20:10:24;;;;;;;;;0.00;0.00;;;;;;;;5111343;27;27870;-84
2022/11/30 20:12:49;;;;;;;;;0.00;0.00;;;;;;;;5096749;27;29983;-83
2022/11/30 20:15:14;;;;;;;;;0.00;0.00;;;;;;;;5109181;27;28460;-84
2022/11/30 20:17:39;;;;;;;;;0.00;0.00;;;;;;;;5091106;27;28657;-85
2022/11/30 20:20:05;;;;;;;;;0.67;0.67;;;;;;;;5109829;27;28495;-85
2022/11/30 20:22:31;;;;;;;;;0.00;0.00;;;;;;;;5109389;27;29451;-85
2022/11/30 20:24:56;;;;;;;;;0.00;0.00;;;;;;;;5109620;27;28450;-86
2022/11/30 20:27:23;;;;;;;;;0.00;0.00;;;;;;;;5090813;27;28548;-84
2022/11/30 20:29:49;;;;;;;;;0.33;0.33;;;;;;;;5090700;27;27963;-85
2022/11/30 20:32:14;;;;;;;;;0.00;0.00;;;;;;;;5090993;27;30057;-84
2022/11/30 20:34:40;;;;;;;;;0.00;0.00;;;;;;;;5090596;27;28867;-84
2022/11/30 20:37:05;;;;;;;;;0.00;0.00;;;;;;;;5108501;27;28831;-85
2022/11/30 20:39:30;;;;;;;;;0.00;0.00;;;;;;;;5091809;27;28489;-85
2022/11/30 20:41:55;;;;;;;;;0.00;0.00;;;;;;;;5111716;27;28567;-85
2022/11/30 20:44:20;;;;;;;;;0.00;0.00;;;;;;;;5114878;27;28623;-86
2022/11/30 20:46:45;;;;;;;;;0.00;0.00;;;;;;;;5096866;27;28460;-85
2022/11/30 20:49:20;;;;;;;;;0.00;0.00;;;;;;;;5116234;27;28532;-86
2022/11/30 20:51:45;;;;;;;;;0.00;0.00;;;;;;;;5097056;27;30276;-85
2022/11/30 20:54:11;;;;;;;;;2.00;2.00;;;;;;;;5097470;27;29935;-86
2022/11/30 20:56:37;;;;;;;;;0.00;0.00;;;;;;;;5097289;27;28607;-87
2022/11/30 20:59:04;;;;;;;;;0.00;0.00;;;;;;;;5115930;27;28678;-85
2022/11/30 21:01:30;;;;;;;;;0.00;0.00;;;;;;;;5104504;27;29609;-94
2022/11/30 21:04:01;;;;;;;;;0.00;0.00;;;;;;;;5112516;27;28425;-94
2022/11/30 21:06:31;;;;;;;;;0.00;0.00;;;;;;;;5123656;27;28565;-93
2022/11/30 21:08:57;;;;;;;;;0.00;0.00;;;;;;;;5107394;27;28673;-93
2022/11/30 21:11:22;;;;;;;;;0.00;0.00;;;;;;;;5106897;27;29772;-93
2022/11/30 21:13:48;;;;;;;;;0.00;0.00;;;;;;;;5105376;27;28736;-96
2022/11/30 21:16:15;;;;;;;;;0.00;0.00;;;;;;;;5107154;27;28714;-96
2022/11/30 21:18:42;;;;;;;;;0.00;0.00;;;;;;;;5102750;27;28423;-96
2022/11/30 21:21:09;;;;;;;;;0.00;0.00;;;;;;;;5107100;27;30065;-96
2022/11/30 21:23:36;;;;;;;;;0.00;0.00;;;;;;;;5105212;27;29027;-96
2022/11/30 21:26:02;;;;;;;;;1.00;1.00;;;;;;;;5105725;27;28617;-96
2022/11/30 21:28:27;;;;;;;;;0.00;0.00;;;;;;;;5103119;27;28356;-96
2022/11/30 21:30:52;;;;;;;;;0.00;0.00;;;;;;;;5102299;27;30943;-96
2022/11/30 21:33:17;;;;;;;;;0.00;0.00;;;;;;;;5104358;27;28479;-96
2022/11/30 21:35:43;;;;;;;;;0.00;0.00;;;;;;;;5105038;27;28491;-96
2022/11/30 21:38:08;;;;;;;;;0.00;0.00;;;;;;;;5113812;27;28527;-96
2022/11/30 21:40:33;;;;;;;;;0.00;0.00;;;;;;;;5118141;27;30164;-96
2022/11/30 21:42:59;;;;;;;;;2.67;2.67;;;;;;;;5106537;27;28689;-96
2022/11/30 21:45:24;;;;;;;;;0.00;0.00;;;;;;;;5106134;27;28404;-96
2022/11/30 21:47:49;;;;;;;;;1.00;1.00;;;;;;;;5105266;27;27827;-96
2022/11/30 21:50:14;;;;;;;;;0.00;0.00;;;;;;;;5104563;27;30331;-96
2022/11/30 21:52:39;;;;;;;;;0.00;0.00;;;;;;;;5103953;27;28523;-96
2022/11/30 21:55:05;;;;;;;;;0.00;0.00;;;;;;;;5103757;27;28398;-96
2022/11/30 21:57:30;;;;;;;;;0.00;0.00;;;;;;;;5104401;27;29476;-96
2022/11/30 21:59:55;;;;;;;;;0.00;0.00;;;;;;;;5106933;27;30284;-96